sensor_id;sensor_type;location;lat;lon;timestamp;P1;durP1;ratioP1;P2;durP2;ratioP2
65397;SDS011;52006;45.068;38.952;2022-08-11T00:00:09;19.75;;;10.40;;
65397;SDS011;52006;45.068;38.952;2022-08-11T00:02:40;23.70;;;11.07;;
65397;SDS011;52006;45.068;38.952;2022-08-11T00:05:19;17.80;;;10.83;;
65397;SDS011;52006;45.068;38.952;2022-08-11T00:07:47;26.48;;;10.23;;
65397;SDS011;52006;45.068;38.952;2022-08-11T00:10:17;29.23;;;11.55;;
65397;SDS011;52006;45.068;38.952;2022-08-11T00:12:54;22.38;;;11.80;;
65397;SDS011;52006;45.068;38.952;2022-08-11T00:15:26;21.38;;;10.52;;
65397;SDS011;52006;45.068;38.952;2022-08-11T00:18:02;20.65;;;9.30;;
65397;SDS011;52006;45.068;38.952;2022-08-11T00:20:32;16.52;;;7.82;;
65397;SDS011;52006;45.068;38.952;2022-08-11T00:23:02;32.10;;;13.87;;
65397;SDS011;52006;45.068;38.952;2022-08-11T00:25:36;19.38;;;9.93;;
65397;SDS011;52006;45.068;38.952;2022-08-11T00:28:04;33.23;;;13.63;;
65397;SDS011;52006;45.068;38.952;2022-08-11T00:30:49;30.00;;;12.98;;
65397;SDS011;52006;45.068;38.952;2022-08-11T00:33:17;20.10;;;10.40;;
65397;SDS011;52006;45.068;38.952;2022-08-11T00:35:45;32.47;;;13.07;;
65397;SDS011;52006;45.068;38.952;2022-08-11T00:38:14;35.85;;;13.63;;
65397;SDS011;52006;45.068;38.952;2022-08-11T00:40:50;31.65;;;12.93;;
65397;SDS011;52006;45.068;38.952;2022-08-11T00:43:41;30.23;;;14.05;;
65397;SDS011;52006;45.068;38.952;2022-08-11T00:46:27;22.17;;;12.18;;
65397;SDS011;52006;45.068;38.952;2022-08-11T00:49:01;31.38;;;13.93;;
65397;SDS011;52006;45.068;38.952;2022-08-11T01:11:07;31.60;;;14.15;;
65397;SDS011;52006;45.068;38.952;2022-08-11T01:45:16;34.35;;;15.80;;
65397;SDS011;52006;45.068;38.952;2022-08-11T01:47:50;36.20;;;14.52;;
65397;SDS011;52006;45.068;38.952;2022-08-11T01:56:45;22.80;;;9.07;;
65397;SDS011;52006;45.068;38.952;2022-08-11T01:59:36;16.50;;;8.07;;
65397;SDS011;52006;45.068;38.952;2022-08-11T02:10:55;28.57;;;12.67;;
65397;SDS011;52006;45.068;38.952;2022-08-11T02:13:50;20.45;;;12.82;;
65397;SDS011;52006;45.068;38.952;2022-08-11T02:18:51;35.03;;;17.17;;
65397;SDS011;52006;45.068;38.952;2022-08-11T02:21:47;36.22;;;15.18;;
65397;SDS011;52006;45.068;38.952;2022-08-11T02:24:44;35.60;;;16.45;;
65397;SDS011;52006;45.068;38.952;2022-08-11T02:27:22;34.35;;;15.30;;
65397;SDS011;52006;45.068;38.952;2022-08-11T02:30:05;32.70;;;16.85;;
65397;SDS011;52006;45.068;38.952;2022-08-11T02:35:45;35.35;;;15.75;;
65397;SDS011;52006;45.068;38.952;2022-08-11T02:50:04;34.55;;;15.18;;
65397;SDS011;52006;45.068;38.952;2022-08-11T02:52:52;36.13;;;17.15;;
65397;SDS011;52006;45.068;38.952;2022-08-11T02:55:29;18.25;;;8.85;;
65397;SDS011;52006;45.068;38.952;2022-08-11T02:58:11;45.97;;;16.85;;
65397;SDS011;52006;45.068;38.952;2022-08-11T03:00:49;38.97;;;17.48;;
65397;SDS011;52006;45.068;38.952;2022-08-11T03:03:26;28.50;;;14.57;;
65397;SDS011;52006;45.068;38.952;2022-08-11T03:06:07;22.38;;;12.20;;
65397;SDS011;52006;45.068;38.952;2022-08-11T03:14:30;18.60;;;9.77;;
65397;SDS011;52006;45.068;38.952;2022-08-11T03:17:57;29.38;;;12.70;;
65397;SDS011;52006;45.068;38.952;2022-08-11T03:20:35;23.83;;;9.80;;
65397;SDS011;52006;45.068;38.952;2022-08-11T03:26:21;29.98;;;16.27;;
65397;SDS011;52006;45.068;38.952;2022-08-11T03:29:09;24.30;;;13.85;;
65397;SDS011;52006;45.068;38.952;2022-08-11T03:31:45;32.10;;;15.95;;
65397;SDS011;52006;45.068;38.952;2022-08-11T03:34:21;26.98;;;14.00;;
65397;SDS011;52006;45.068;38.952;2022-08-11T03:43:32;22.65;;;13.48;;
65397;SDS011;52006;45.068;38.952;2022-08-11T03:54:42;37.80;;;16.10;;
65397;SDS011;52006;45.068;38.952;2022-08-11T04:00:24;44.33;;;19.23;;
65397;SDS011;52006;45.068;38.952;2022-08-11T04:03:14;50.58;;;21.80;;
65397;SDS011;52006;45.068;38.952;2022-08-11T04:32:09;42.85;;;20.73;;
65397;SDS011;52006;45.068;38.952;2022-08-11T04:41:19;41.88;;;19.42;;
65397;SDS011;52006;45.068;38.952;2022-08-11T04:49:30;46.33;;;21.30;;
65397;SDS011;52006;45.068;38.952;2022-08-11T04:55:27;46.38;;;23.35;;
65397;SDS011;52006;45.068;38.952;2022-08-11T05:07:35;37.50;;;17.50;;
65397;SDS011;52006;45.068;38.952;2022-08-11T05:10:45;34.08;;;17.58;;
65397;SDS011;52006;45.068;38.952;2022-08-11T05:13:29;49.75;;;22.63;;
65397;SDS011;52006;45.068;38.952;2022-08-11T05:16:17;16.55;;;10.23;;
65397;SDS011;52006;45.068;38.952;2022-08-11T05:19:07;39.00;;;19.10;;
65397;SDS011;52006;45.068;38.952;2022-08-11T05:22:14;51.80;;;23.85;;
65397;SDS011;52006;45.068;38.952;2022-08-11T05:27:53;49.65;;;22.55;;
65397;SDS011;52006;45.068;38.952;2022-08-11T05:31:06;53.67;;;22.88;;
65397;SDS011;52006;45.068;38.952;2022-08-11T05:34:31;52.28;;;20.88;;
65397;SDS011;52006;45.068;38.952;2022-08-11T05:40:11;35.17;;;18.58;;
65397;SDS011;52006;45.068;38.952;2022-08-11T05:43:01;56.63;;;24.13;;
65397;SDS011;52006;45.068;38.952;2022-08-11T05:46:01;36.05;;;19.15;;
65397;SDS011;52006;45.068;38.952;2022-08-11T05:48:48;50.85;;;23.92;;
65397;SDS011;52006;45.068;38.952;2022-08-11T05:51:35;56.30;;;24.50;;
65397;SDS011;52006;45.068;38.952;2022-08-11T05:54:26;40.10;;;21.38;;
65397;SDS011;52006;45.068;38.952;2022-08-11T05:57:46;60.13;;;22.85;;
65397;SDS011;52006;45.068;38.952;2022-08-11T06:00:06;43.38;;;24.05;;
65397;SDS011;52006;45.068;38.952;2022-08-11T06:03:50;44.00;;;21.35;;
65397;SDS011;52006;45.068;38.952;2022-08-11T06:11:57;49.05;;;25.35;;
65397;SDS011;52006;45.068;38.952;2022-08-11T06:14:26;41.75;;;23.02;;
65397;SDS011;52006;45.068;38.952;2022-08-11T06:17:00;51.67;;;24.95;;
65397;SDS011;52006;45.068;38.952;2022-08-11T06:19:38;48.47;;;23.05;;
65397;SDS011;52006;45.068;38.952;2022-08-11T06:22:23;46.28;;;21.60;;
65397;SDS011;52006;45.068;38.952;2022-08-11T06:24:55;41.63;;;20.80;;
65397;SDS011;52006;45.068;38.952;2022-08-11T06:27:26;61.80;;;27.05;;
65397;SDS011;52006;45.068;38.952;2022-08-11T06:29:56;50.95;;;23.40;;
65397;SDS011;52006;45.068;38.952;2022-08-11T06:32:24;49.38;;;24.20;;
65397;SDS011;52006;45.068;38.952;2022-08-11T06:35:07;49.05;;;21.45;;
65397;SDS011;52006;45.068;38.952;2022-08-11T06:40:35;59.78;;;25.27;;
65397;SDS011;52006;45.068;38.952;2022-08-11T06:44:04;61.25;;;24.13;;
65397;SDS011;52006;45.068;38.952;2022-08-11T06:46:38;62.17;;;25.13;;
65397;SDS011;52006;45.068;38.952;2022-08-11T06:49:10;46.60;;;24.58;;
65397;SDS011;52006;45.068;38.952;2022-08-11T06:52:00;47.05;;;24.70;;
65397;SDS011;52006;45.068;38.952;2022-08-11T06:54:35;51.17;;;23.30;;
65397;SDS011;52006;45.068;38.952;2022-08-11T06:57:16;48.65;;;24.50;;
65397;SDS011;52006;45.068;38.952;2022-08-11T07:00:04;55.30;;;23.95;;
65397;SDS011;52006;45.068;38.952;2022-08-11T07:02:56;51.40;;;26.00;;
65397;SDS011;52006;45.068;38.952;2022-08-11T07:11:53;42.75;;;21.13;;
65397;SDS011;52006;45.068;38.952;2022-08-11T07:14:49;48.55;;;22.98;;
65397;SDS011;52006;45.068;38.952;2022-08-11T07:17:37;45.13;;;24.80;;
65397;SDS011;52006;45.068;38.952;2022-08-11T07:20:14;50.10;;;23.75;;
65397;SDS011;52006;45.068;38.952;2022-08-11T07:23:02;59.25;;;25.25;;
65397;SDS011;52006;45.068;38.952;2022-08-11T07:25:51;45.17;;;23.15;;
65397;SDS011;52006;45.068;38.952;2022-08-11T07:28:44;48.85;;;23.48;;
65397;SDS011;52006;45.068;38.952;2022-08-11T07:31:32;52.60;;;24.48;;
65397;SDS011;52006;45.068;38.952;2022-08-11T07:34:11;57.42;;;25.05;;
65397;SDS011;52006;45.068;38.952;2022-08-11T07:36:48;47.55;;;25.15;;
65397;SDS011;52006;45.068;38.952;2022-08-11T07:39:21;49.08;;;22.63;;
65397;SDS011;52006;45.068;38.952;2022-08-11T07:41:52;60.35;;;23.58;;
65397;SDS011;52006;45.068;38.952;2022-08-11T07:44:22;57.70;;;26.67;;
65397;SDS011;52006;45.068;38.952;2022-08-11T07:46:55;63.20;;;24.38;;
65397;SDS011;52006;45.068;38.952;2022-08-11T07:49:43;55.80;;;25.85;;
65397;SDS011;52006;45.068;38.952;2022-08-11T07:52:29;51.08;;;24.80;;
65397;SDS011;52006;45.068;38.952;2022-08-11T07:55:01;55.35;;;25.48;;
65397;SDS011;52006;45.068;38.952;2022-08-11T07:57:28;48.35;;;24.17;;
65397;SDS011;52006;45.068;38.952;2022-08-11T08:00:16;55.97;;;26.17;;
65397;SDS011;52006;45.068;38.952;2022-08-11T08:03:02;60.63;;;25.27;;
65397;SDS011;52006;45.068;38.952;2022-08-11T08:05:48;48.33;;;23.67;;
65397;SDS011;52006;45.068;38.952;2022-08-11T08:08:35;51.17;;;25.20;;
65397;SDS011;52006;45.068;38.952;2022-08-11T08:11:22;46.88;;;21.17;;
65397;SDS011;52006;45.068;38.952;2022-08-11T08:14:07;46.47;;;22.42;;
65397;SDS011;52006;45.068;38.952;2022-08-11T08:16:53;57.50;;;24.70;;
65397;SDS011;52006;45.068;38.952;2022-08-11T08:19:42;59.50;;;25.15;;
65397;SDS011;52006;45.068;38.952;2022-08-11T08:24:49;53.25;;;24.27;;
65397;SDS011;52006;45.068;38.952;2022-08-11T08:27:27;50.90;;;22.70;;
65397;SDS011;52006;45.068;38.952;2022-08-11T08:29:55;55.20;;;23.63;;
65397;SDS011;52006;45.068;38.952;2022-08-11T08:32:43;48.17;;;23.45;;
65397;SDS011;52006;45.068;38.952;2022-08-11T08:35:10;51.50;;;25.17;;
65397;SDS011;52006;45.068;38.952;2022-08-11T08:37:37;46.63;;;22.73;;
65397;SDS011;52006;45.068;38.952;2022-08-11T08:40:05;62.92;;;23.50;;
65397;SDS011;52006;45.068;38.952;2022-08-11T08:42:36;55.55;;;22.80;;
65397;SDS011;52006;45.068;38.952;2022-08-11T08:45:07;52.25;;;21.88;;
65397;SDS011;52006;45.068;38.952;2022-08-11T08:47:46;52.17;;;21.67;;
65397;SDS011;52006;45.068;38.952;2022-08-11T08:50:20;44.70;;;22.10;;
65397;SDS011;52006;45.068;38.952;2022-08-11T08:52:51;53.83;;;22.42;;
65397;SDS011;52006;45.068;38.952;2022-08-11T08:55:22;55.67;;;24.40;;
65397;SDS011;52006;45.068;38.952;2022-08-11T08:57:53;53.83;;;24.33;;
65397;SDS011;52006;45.068;38.952;2022-08-11T09:00:24;58.17;;;24.00;;
65397;SDS011;52006;45.068;38.952;2022-08-11T09:03:04;45.72;;;23.38;;
65397;SDS011;52006;45.068;38.952;2022-08-11T09:05:30;50.50;;;24.17;;
65397;SDS011;52006;45.068;38.952;2022-08-11T09:07:57;52.63;;;23.73;;
65397;SDS011;52006;45.068;38.952;2022-08-11T09:10:25;47.80;;;22.05;;
65397;SDS011;52006;45.068;38.952;2022-08-11T09:12:55;49.63;;;21.33;;
65397;SDS011;52006;45.068;38.952;2022-08-11T09:15:25;42.03;;;21.95;;
65397;SDS011;52006;45.068;38.952;2022-08-11T09:17:53;53.92;;;24.20;;
65397;SDS011;52006;45.068;38.952;2022-08-11T09:20:26;54.72;;;23.38;;
65397;SDS011;52006;45.068;38.952;2022-08-11T09:22:55;44.53;;;21.17;;
65397;SDS011;52006;45.068;38.952;2022-08-11T09:25:42;41.55;;;21.67;;
65397;SDS011;52006;45.068;38.952;2022-08-11T09:28:29;42.35;;;22.40;;
65397;SDS011;52006;45.068;38.952;2022-08-11T09:30:58;47.75;;;21.55;;
65397;SDS011;52006;45.068;38.952;2022-08-11T09:33:28;51.38;;;23.55;;
65397;SDS011;52006;45.068;38.952;2022-08-11T09:35:55;50.17;;;24.48;;
65397;SDS011;52006;45.068;38.952;2022-08-11T09:38:23;58.45;;;25.15;;
65397;SDS011;52006;45.068;38.952;2022-08-11T09:41:10;44.78;;;23.30;;
65397;SDS011;52006;45.068;38.952;2022-08-11T09:43:39;51.67;;;23.80;;
65397;SDS011;52006;45.068;38.952;2022-08-11T09:46:28;54.72;;;22.92;;
65397;SDS011;52006;45.068;38.952;2022-08-11T09:48:59;61.20;;;24.83;;
65397;SDS011;52006;45.068;38.952;2022-08-11T09:51:29;50.28;;;23.52;;
65397;SDS011;52006;45.068;38.952;2022-08-11T09:53:58;45.83;;;23.02;;
65397;SDS011;52006;45.068;38.952;2022-08-11T09:56:33;49.75;;;22.85;;
65397;SDS011;52006;45.068;38.952;2022-08-11T09:59:24;68.60;;;24.90;;
65397;SDS011;52006;45.068;38.952;2022-08-11T10:02:01;47.35;;;25.48;;
65397;SDS011;52006;45.068;38.952;2022-08-11T10:04:40;54.75;;;23.27;;
65397;SDS011;52006;45.068;38.952;2022-08-11T10:07:13;47.53;;;22.95;;
65397;SDS011;52006;45.068;38.952;2022-08-11T10:12:47;36.55;;;21.65;;
65397;SDS011;52006;45.068;38.952;2022-08-11T10:15:22;35.70;;;18.20;;
65397;SDS011;52006;45.068;38.952;2022-08-11T10:21:03;43.85;;;20.40;;
65397;SDS011;52006;45.068;38.952;2022-08-11T10:23:58;42.13;;;20.42;;
65397;SDS011;52006;45.068;38.952;2022-08-11T10:26:44;49.97;;;22.88;;
65397;SDS011;52006;45.068;38.952;2022-08-11T10:29:37;37.08;;;21.83;;
65397;SDS011;52006;45.068;38.952;2022-08-11T10:32:27;42.70;;;21.38;;
65397;SDS011;52006;45.068;38.952;2022-08-11T10:35:15;41.67;;;18.33;;
65397;SDS011;52006;45.068;38.952;2022-08-11T10:37:42;43.47;;;20.52;;
65397;SDS011;52006;45.068;38.952;2022-08-11T10:40:13;34.65;;;19.58;;
65397;SDS011;52006;45.068;38.952;2022-08-11T10:42:41;32.83;;;16.45;;
65397;SDS011;52006;45.068;38.952;2022-08-11T10:45:31;26.73;;;15.80;;
65397;SDS011;52006;45.068;38.952;2022-08-11T10:48:24;32.03;;;18.20;;
65397;SDS011;52006;45.068;38.952;2022-08-11T10:50:55;34.25;;;18.85;;
65397;SDS011;52006;45.068;38.952;2022-08-11T10:53:43;33.75;;;18.85;;
65397;SDS011;52006;45.068;38.952;2022-08-11T10:56:35;38.92;;;17.65;;
65397;SDS011;52006;45.068;38.952;2022-08-11T10:59:22;30.55;;;15.85;;
65397;SDS011;52006;45.068;38.952;2022-08-11T11:01:52;44.97;;;18.83;;
65397;SDS011;52006;45.068;38.952;2022-08-11T11:04:38;28.50;;;16.75;;
65397;SDS011;52006;45.068;38.952;2022-08-11T11:07:09;26.45;;;14.35;;
65397;SDS011;52006;45.068;38.952;2022-08-11T11:09:53;32.55;;;15.50;;
65397;SDS011;52006;45.068;38.952;2022-08-11T11:12:46;25.77;;;14.88;;
65397;SDS011;52006;45.068;38.952;2022-08-11T11:15:39;29.17;;;13.55;;
65397;SDS011;52006;45.068;38.952;2022-08-11T11:18:28;29.73;;;12.93;;
65397;SDS011;52006;45.068;38.952;2022-08-11T11:28:45;21.25;;;10.75;;
65397;SDS011;52006;45.068;38.952;2022-08-11T11:37:06;19.20;;;11.50;;
65397;SDS011;52006;45.068;38.952;2022-08-11T11:39:32;19.35;;;10.85;;
65397;SDS011;52006;45.068;38.952;2022-08-11T11:42:01;24.88;;;11.25;;
65397;SDS011;52006;45.068;38.952;2022-08-11T11:44:31;32.60;;;12.15;;
65397;SDS011;52006;45.068;38.952;2022-08-11T11:46:58;21.52;;;10.77;;
65397;SDS011;52006;45.068;38.952;2022-08-11T11:49:27;19.50;;;9.52;;
65397;SDS011;52006;45.068;38.952;2022-08-11T11:51:57;18.85;;;10.30;;
65397;SDS011;52006;45.068;38.952;2022-08-11T11:54:30;16.00;;;9.00;;
65397;SDS011;52006;45.068;38.952;2022-08-11T11:57:01;17.48;;;8.85;;
65397;SDS011;52006;45.068;38.952;2022-08-11T11:59:49;16.83;;;7.88;;
65397;SDS011;52006;45.068;38.952;2022-08-11T12:02:36;13.82;;;7.95;;
65397;SDS011;52006;45.068;38.952;2022-08-11T12:05:04;13.50;;;6.80;;
65397;SDS011;52006;45.068;38.952;2022-08-11T12:07:34;20.92;;;8.73;;
65397;SDS011;52006;45.068;38.952;2022-08-11T12:10:20;11.13;;;7.43;;
65397;SDS011;52006;45.068;38.952;2022-08-11T12:12:47;36.92;;;9.35;;
65397;SDS011;52006;45.068;38.952;2022-08-11T12:15:39;17.80;;;8.63;;
65397;SDS011;52006;45.068;38.952;2022-08-11T12:18:05;17.02;;;7.72;;
65397;SDS011;52006;45.068;38.952;2022-08-11T12:20:31;16.27;;;8.45;;
65397;SDS011;52006;45.068;38.952;2022-08-11T12:22:59;17.05;;;8.63;;
65397;SDS011;52006;45.068;38.952;2022-08-11T12:25:44;19.90;;;8.50;;
65397;SDS011;52006;45.068;38.952;2022-08-11T12:28:29;23.85;;;8.30;;
65397;SDS011;52006;45.068;38.952;2022-08-11T12:30:57;14.93;;;8.13;;
65397;SDS011;52006;45.068;38.952;2022-08-11T12:33:23;20.15;;;8.00;;
65397;SDS011;52006;45.068;38.952;2022-08-11T12:35:51;15.80;;;8.02;;
65397;SDS011;52006;45.068;38.952;2022-08-11T12:38:22;14.20;;;7.15;;
65397;SDS011;52006;45.068;38.952;2022-08-11T12:40:49;12.10;;;7.32;;
65397;SDS011;52006;45.068;38.952;2022-08-11T12:43:35;15.15;;;8.15;;
65397;SDS011;52006;45.068;38.952;2022-08-11T12:46:23;15.93;;;7.82;;
65397;SDS011;52006;45.068;38.952;2022-08-11T12:49:00;12.40;;;7.50;;
65397;SDS011;52006;45.068;38.952;2022-08-11T12:51:53;12.73;;;8.10;;
65397;SDS011;52006;45.068;38.952;2022-08-11T12:57:32;17.63;;;8.10;;
65397;SDS011;52006;45.068;38.952;2022-08-11T13:00:17;16.80;;;8.45;;
65397;SDS011;52006;45.068;38.952;2022-08-11T13:03:04;17.85;;;8.43;;
65397;SDS011;52006;45.068;38.952;2022-08-11T13:05:55;12.90;;;8.32;;
65397;SDS011;52006;45.068;38.952;2022-08-11T13:08:27;14.48;;;8.80;;
65397;SDS011;52006;45.068;38.952;2022-08-11T13:10:56;13.52;;;8.15;;
65397;SDS011;52006;45.068;38.952;2022-08-11T13:13:44;15.48;;;8.85;;
65397;SDS011;52006;45.068;38.952;2022-08-11T13:16:13;15.05;;;9.25;;
65397;SDS011;52006;45.068;38.952;2022-08-11T13:18:41;19.75;;;8.52;;
65397;SDS011;52006;45.068;38.952;2022-08-11T13:21:21;15.52;;;9.60;;
65397;SDS011;52006;45.068;38.952;2022-08-11T13:23:49;16.70;;;9.50;;
65397;SDS011;52006;45.068;38.952;2022-08-11T13:26:20;19.40;;;9.73;;
65397;SDS011;52006;45.068;38.952;2022-08-11T13:28:48;16.80;;;10.23;;
65397;SDS011;52006;45.068;38.952;2022-08-11T13:31:16;16.50;;;9.55;;
65397;SDS011;52006;45.068;38.952;2022-08-11T13:33:44;21.60;;;10.45;;
65397;SDS011;52006;45.068;38.952;2022-08-11T13:36:15;15.32;;;8.88;;
65397;SDS011;52006;45.068;38.952;2022-08-11T13:38:45;23.10;;;9.93;;
65397;SDS011;52006;45.068;38.952;2022-08-11T13:41:14;14.38;;;8.40;;
65397;SDS011;52006;45.068;38.952;2022-08-11T13:44:01;17.48;;;8.68;;
65397;SDS011;52006;45.068;38.952;2022-08-11T13:46:29;16.55;;;9.55;;
65397;SDS011;52006;45.068;38.952;2022-08-11T13:48:56;15.93;;;9.55;;
65397;SDS011;52006;45.068;38.952;2022-08-11T13:51:23;18.92;;;9.38;;
65397;SDS011;52006;45.068;38.952;2022-08-11T13:56:54;16.73;;;8.55;;
65397;SDS011;52006;45.068;38.952;2022-08-11T13:59:23;13.10;;;7.35;;
65397;SDS011;52006;45.068;38.952;2022-08-11T14:01:55;14.40;;;7.70;;
65397;SDS011;52006;45.068;38.952;2022-08-11T14:07:02;10.75;;;6.65;;
65397;SDS011;52006;45.068;38.952;2022-08-11T14:09:34;16.10;;;7.25;;
65397;SDS011;52006;45.068;38.952;2022-08-11T14:12:22;10.88;;;7.25;;
65397;SDS011;52006;45.068;38.952;2022-08-11T14:15:11;11.80;;;6.72;;
65397;SDS011;52006;45.068;38.952;2022-08-11T14:18:31;11.80;;;7.30;;
65397;SDS011;52006;45.068;38.952;2022-08-11T14:20:54;8.95;;;5.82;;
65397;SDS011;52006;45.068;38.952;2022-08-11T14:23:41;15.50;;;7.88;;
65397;SDS011;52006;45.068;38.952;2022-08-11T14:26:13;13.50;;;9.00;;
65397;SDS011;52006;45.068;38.952;2022-08-11T14:28:49;18.95;;;9.07;;
65397;SDS011;52006;45.068;38.952;2022-08-11T14:31:19;16.77;;;8.00;;
65397;SDS011;52006;45.068;38.952;2022-08-11T14:33:49;17.17;;;8.38;;
65397;SDS011;52006;45.068;38.952;2022-08-11T14:36:20;11.23;;;6.60;;
65397;SDS011;52006;45.068;38.952;2022-08-11T14:38:49;15.45;;;8.48;;
65397;SDS011;52006;45.068;38.952;2022-08-11T14:41:18;14.65;;;8.88;;
65397;SDS011;52006;45.068;38.952;2022-08-11T14:44:04;26.63;;;9.05;;
65397;SDS011;52006;45.068;38.952;2022-08-11T14:46:50;21.45;;;8.20;;
65397;SDS011;52006;45.068;38.952;2022-08-11T14:49:36;16.10;;;9.57;;
65397;SDS011;52006;45.068;38.952;2022-08-11T14:52:05;21.85;;;10.95;;
65397;SDS011;52006;45.068;38.952;2022-08-11T14:54:35;20.50;;;10.05;;
65397;SDS011;52006;45.068;38.952;2022-08-11T14:57:21;20.88;;;10.38;;
65397;SDS011;52006;45.068;38.952;2022-08-11T15:13:55;22.88;;;10.95;;
65397;SDS011;52006;45.068;38.952;2022-08-11T15:25:35;22.73;;;11.18;;
65397;SDS011;52006;45.068;38.952;2022-08-11T15:31:39;26.88;;;11.27;;
65397;SDS011;52006;45.068;38.952;2022-08-11T15:34:29;26.42;;;12.15;;
65397;SDS011;52006;45.068;38.952;2022-08-11T15:48:43;27.67;;;12.65;;
65397;SDS011;52006;45.068;38.952;2022-08-11T17:11:35;27.42;;;14.93;;
65397;SDS011;52006;45.068;38.952;2022-08-11T17:14:36;29.75;;;15.45;;
65397;SDS011;52006;45.068;38.952;2022-08-11T17:23:31;26.40;;;13.35;;
65397;SDS011;52006;45.068;38.952;2022-08-11T18:30:01;26.90;;;12.80;;
65397;SDS011;52006;45.068;38.952;2022-08-11T18:53:28;25.70;;;13.55;;
65397;SDS011;52006;45.068;38.952;2022-08-11T19:39:33;29.80;;;12.82;;
65397;SDS011;52006;45.068;38.952;2022-08-11T19:47:54;33.60;;;13.20;;
65397;SDS011;52006;45.068;38.952;2022-08-11T19:50:41;48.10;;;13.43;;
65397;SDS011;52006;45.068;38.952;2022-08-11T19:58:52;32.17;;;13.60;;
65397;SDS011;52006;45.068;38.952;2022-08-11T20:01:39;27.73;;;13.38;;
65397;SDS011;52006;45.068;38.952;2022-08-11T20:04:25;30.90;;;11.48;;
65397;SDS011;52006;45.068;38.952;2022-08-11T20:07:10;34.95;;;13.18;;
65397;SDS011;52006;45.068;38.952;2022-08-11T20:15:20;30.05;;;11.57;;
65397;SDS011;52006;45.068;38.952;2022-08-11T20:18:07;21.10;;;12.10;;
65397;SDS011;52006;45.068;38.952;2022-08-11T20:20:57;23.70;;;11.07;;
65397;SDS011;52006;45.068;38.952;2022-08-11T20:23:44;26.27;;;12.73;;
65397;SDS011;52006;45.068;38.952;2022-08-11T20:26:50;20.00;;;12.68;;
65397;SDS011;52006;45.068;38.952;2022-08-11T20:29:38;25.17;;;12.48;;
65397;SDS011;52006;45.068;38.952;2022-08-11T20:32:24;30.40;;;13.98;;
65397;SDS011;52006;45.068;38.952;2022-08-11T20:35:12;28.77;;;13.30;;
65397;SDS011;52006;45.068;38.952;2022-08-11T20:37:59;26.52;;;13.27;;
65397;SDS011;52006;45.068;38.952;2022-08-11T20:40:46;31.38;;;13.68;;
65397;SDS011;52006;45.068;38.952;2022-08-11T20:49:37;23.92;;;13.15;;
65397;SDS011;52006;45.068;38.952;2022-08-11T20:52:27;24.23;;;13.35;;
65397;SDS011;52006;45.068;38.952;2022-08-11T21:00:40;25.02;;;13.18;;
65397;SDS011;52006;45.068;38.952;2022-08-11T21:06:43;32.80;;;13.15;;
65397;SDS011;52006;45.068;38.952;2022-08-11T21:12:19;29.67;;;13.48;;
65397;SDS011;52006;45.068;38.952;2022-08-11T21:17:50;27.98;;;15.63;;
65397;SDS011;52006;45.068;38.952;2022-08-11T21:20:40;31.77;;;15.50;;
65397;SDS011;52006;45.068;38.952;2022-08-11T21:26:28;24.00;;;12.43;;
65397;SDS011;52006;45.068;38.952;2022-08-11T21:29:17;26.30;;;13.00;;
65397;SDS011;52006;45.068;38.952;2022-08-11T21:32:04;30.55;;;12.88;;
65397;SDS011;52006;45.068;38.952;2022-08-11T21:34:49;26.02;;;13.50;;
65397;SDS011;52006;45.068;38.952;2022-08-11T21:37:36;26.77;;;13.65;;
65397;SDS011;52006;45.068;38.952;2022-08-11T21:40:22;27.73;;;13.75;;
65397;SDS011;52006;45.068;38.952;2022-08-11T21:43:09;28.85;;;14.18;;
65397;SDS011;52006;45.068;38.952;2022-08-11T21:45:56;27.38;;;11.80;;
65397;SDS011;52006;45.068;38.952;2022-08-11T21:48:43;28.02;;;12.82;;
65397;SDS011;52006;45.068;38.952;2022-08-11T21:51:28;23.13;;;10.85;;
65397;SDS011;52006;45.068;38.952;2022-08-11T21:54:14;24.55;;;11.80;;
65397;SDS011;52006;45.068;38.952;2022-08-11T21:56:59;28.67;;;14.27;;
65397;SDS011;52006;45.068;38.952;2022-08-11T21:59:54;24.08;;;13.05;;
65397;SDS011;52006;45.068;38.952;2022-08-11T22:02:45;23.15;;;11.35;;
65397;SDS011;52006;45.068;38.952;2022-08-11T22:05:31;28.23;;;12.88;;
65397;SDS011;52006;45.068;38.952;2022-08-11T22:08:17;22.02;;;11.82;;
65397;SDS011;52006;45.068;38.952;2022-08-11T22:11:04;26.92;;;11.65;;
65397;SDS011;52006;45.068;38.952;2022-08-11T22:13:49;18.15;;;11.60;;
65397;SDS011;52006;45.068;38.952;2022-08-11T22:16:34;21.73;;;11.55;;
65397;SDS011;52006;45.068;38.952;2022-08-11T22:19:19;21.23;;;12.88;;
65397;SDS011;52006;45.068;38.952;2022-08-11T22:22:06;20.77;;;12.20;;
65397;SDS011;52006;45.068;38.952;2022-08-11T22:24:53;23.60;;;12.75;;
65397;SDS011;52006;45.068;38.952;2022-08-11T22:27:39;25.08;;;12.07;;
65397;SDS011;52006;45.068;38.952;2022-08-11T22:30:23;18.85;;;12.40;;
65397;SDS011;52006;45.068;38.952;2022-08-11T22:33:09;19.10;;;10.50;;
65397;SDS011;52006;45.068;38.952;2022-08-11T22:35:56;19.45;;;10.55;;
65397;SDS011;52006;45.068;38.952;2022-08-11T22:38:44;20.15;;;10.82;;
65397;SDS011;52006;45.068;38.952;2022-08-11T22:44:21;22.55;;;12.00;;
65397;SDS011;52006;45.068;38.952;2022-08-11T22:47:11;20.67;;;10.57;;
65397;SDS011;52006;45.068;38.952;2022-08-11T22:53:04;19.15;;;10.60;;
65397;SDS011;52006;45.068;38.952;2022-08-11T22:55:51;18.45;;;10.30;;
65397;SDS011;52006;45.068;38.952;2022-08-11T22:58:37;22.88;;;11.30;;
65397;SDS011;52006;45.068;38.952;2022-08-11T23:01:22;16.25;;;9.50;;
65397;SDS011;52006;45.068;38.952;2022-08-11T23:04:08;22.75;;;9.00;;
65397;SDS011;52006;45.068;38.952;2022-08-11T23:06:55;17.38;;;9.88;;
65397;SDS011;52006;45.068;38.952;2022-08-11T23:09:43;18.77;;;8.60;;
65397;SDS011;52006;45.068;38.952;2022-08-11T23:12:28;16.02;;;8.27;;
65397;SDS011;52006;45.068;38.952;2022-08-11T23:15:14;12.57;;;7.50;;
65397;SDS011;52006;45.068;38.952;2022-08-11T23:18:17;13.30;;;6.93;;
65397;SDS011;52006;45.068;38.952;2022-08-11T23:21:02;13.43;;;7.88;;
65397;SDS011;52006;45.068;38.952;2022-08-11T23:23:48;14.30;;;6.63;;
65397;SDS011;52006;45.068;38.952;2022-08-11T23:26:34;13.80;;;7.63;;
65397;SDS011;52006;45.068;38.952;2022-08-11T23:29:22;10.93;;;6.57;;
65397;SDS011;52006;45.068;38.952;2022-08-11T23:32:09;9.32;;;5.63;;
65397;SDS011;52006;45.068;38.952;2022-08-11T23:34:55;14.15;;;6.50;;
65397;SDS011;52006;45.068;38.952;2022-08-11T23:37:43;9.85;;;6.03;;
65397;SDS011;52006;45.068;38.952;2022-08-11T23:40:28;10.25;;;5.88;;
65397;SDS011;52006;45.068;38.952;2022-08-11T23:43:20;15.25;;;6.75;;
65397;SDS011;52006;45.068;38.952;2022-08-11T23:46:08;10.00;;;5.82;;
65397;SDS011;52006;45.068;38.952;2022-08-11T23:48:56;11.60;;;5.57;;
65397;SDS011;52006;45.068;38.952;2022-08-11T23:51:46;10.70;;;5.78;;
65397;SDS011;52006;45.068;38.952;2022-08-11T23:54:32;8.68;;;5.53;;
